KPAE/PAE METAR and TAF weather

Enter ICAO airport designator
Station Type Date Time Source
KPAE METAR 2021/03/06 03:53 UTC NOAA

KPAE 060353Z 17010KT 10SM CLR 07/03 A2991 RMK AO2 SLP131 T00720033


Station Type Date Time Source
KPAE Decoded METAR 2021/03/06 03:53 UTC NOAA

EVERETT SNOHOMISH COUNTY, WA, United States (KPAE) 47-55N 122-17W 180M
Mar 05, 2021 - 10:53 PM EST / 2021.03.06 0353 UTC
Wind: from the S (170 degrees) at 12 MPH (10 KT):0
Visibility: 10 mile(s):0
Sky conditions: clear
Temperature: 45.0 F (7.2 C)
Dew Point: 37.9 F (3.3 C)
Relative Humidity: 76%
Pressure (altimeter): 29.91 in. Hg (1012 hPa)
ob: KPAE 060353Z 17010KT 10SM CLR 07/03 A2991 RMK AO2 SLP131 T00720033
cycle: 4

Station Type Date Time Source
KPAE TAF 2021/03/05 18:42 UTC NOAA

TAF KPAE 051739Z 0518/0618 19015G25KT P6SM -RA OVC050
FM051900 17015G24KT P6SM -RA OVC030
FM060700 18012KT P6SM VCSH BKN070
FM061200 17007KT P6SM VCSH OVC050

Example: see airport list